sensor_id;sensor_type;location;lat;lon;timestamp;pressure;altitude;pressure_sealevel;temperature;humidity
72959;BME280;60008;50.826;6.896;2022-11-04T00:01:38;99694.25;;;10.05;100.00
72959;BME280;60008;50.826;6.896;2022-11-04T00:04:25;99704.38;;;10.01;100.00
72959;BME280;60008;50.826;6.896;2022-11-04T00:07:11;99700.72;;;10.02;100.00
72959;BME280;60008;50.826;6.896;2022-11-04T00:10:15;99713.75;;;10.04;100.00
72959;BME280;60008;50.826;6.896;2022-11-04T00:13:00;99719.25;;;10.02;100.00
72959;BME280;60008;50.826;6.896;2022-11-04T00:15:45;99732.13;;;10.05;100.00
72959;BME280;60008;50.826;6.896;2022-11-04T00:18:49;99728.28;;;10.08;100.00
72959;BME280;60008;50.826;6.896;2022-11-04T00:21:34;99736.03;;;10.09;100.00
72959;BME280;60008;50.826;6.896;2022-11-04T00:24:38;99731.75;;;10.08;100.00
72959;BME280;60008;50.826;6.896;2022-11-04T00:27:26;99732.84;;;9.99;100.00
72959;BME280;60008;50.826;6.896;2022-11-04T00:30:43;99743.06;;;10.02;100.00
72959;BME280;60008;50.826;6.896;2022-11-04T00:33:28;99743.72;;;10.04;100.00
72959;BME280;60008;50.826;6.896;2022-11-04T00:36:14;99748.09;;;10.12;100.00
72959;BME280;60008;50.826;6.896;2022-11-04T00:38:59;99749.91;;;10.11;100.00
72959;BME280;60008;50.826;6.896;2022-11-04T00:41:44;99756.03;;;10.12;100.00
72959;BME280;60008;50.826;6.896;2022-11-04T00:44:29;99753.09;;;10.07;100.00
72959;BME280;60008;50.826;6.896;2022-11-04T00:47:13;99751.94;;;10.09;100.00
72959;BME280;60008;50.826;6.896;2022-11-04T00:49:58;99757.03;;;10.11;100.00
72959;BME280;60008;50.826;6.896;2022-11-04T00:52:43;99762.66;;;10.16;100.00
72959;BME280;60008;50.826;6.896;2022-11-04T00:55:28;99772.28;;;10.09;100.00
72959;BME280;60008;50.826;6.896;2022-11-04T00:58:13;99779.22;;;10.10;100.00
72959;BME280;60008;50.826;6.896;2022-11-04T01:00:58;99774.94;;;10.09;100.00
72959;BME280;60008;50.826;6.896;2022-11-04T01:03:43;99783.88;;;10.08;100.00
72959;BME280;60008;50.826;6.896;2022-11-04T01:06:29;99789.53;;;10.05;100.00
72959;BME280;60008;50.826;6.896;2022-11-04T01:09:13;99792.72;;;10.00;100.00
72959;BME280;60008;50.826;6.896;2022-11-04T01:11:58;99793.81;;;9.91;100.00
72959;BME280;60008;50.826;6.896;2022-11-04T01:14:43;99801.56;;;9.93;100.00
72959;BME280;60008;50.826;6.896;2022-11-04T01:17:28;99805.72;;;9.87;100.00
72959;BME280;60008;50.826;6.896;2022-11-04T01:20:13;99811.56;;;9.83;100.00
72959;BME280;60008;50.826;6.896;2022-11-04T01:22:58;99817.75;;;9.75;100.00
72959;BME280;60008;50.826;6.896;2022-11-04T01:25:44;99819.22;;;9.78;100.00
72959;BME280;60008;50.826;6.896;2022-11-04T01:28:28;99819.59;;;9.75;100.00
72959;BME280;60008;50.826;6.896;2022-11-04T01:31:17;99814.16;;;9.68;100.00
72959;BME280;60008;50.826;6.896;2022-11-04T01:34:02;99827.28;;;9.62;100.00
72959;BME280;60008;50.826;6.896;2022-11-04T01:36:47;99819.72;;;9.58;100.00
72959;BME280;60008;50.826;6.896;2022-11-04T01:39:32;99823.53;;;9.56;100.00
72959;BME280;60008;50.826;6.896;2022-11-04T01:42:20;99828.97;;;9.54;100.00
72959;BME280;60008;50.826;6.896;2022-11-04T01:45:11;99842.09;;;9.48;100.00
72959;BME280;60008;50.826;6.896;2022-11-04T01:48:04;99834.56;;;9.37;100.00
72959;BME280;60008;50.826;6.896;2022-11-04T01:50:51;99835.91;;;9.33;100.00
72959;BME280;60008;50.826;6.896;2022-11-04T01:53:39;99832.56;;;9.39;100.00
72959;BME280;60008;50.826;6.896;2022-11-04T01:56:26;99833.22;;;9.41;100.00
72959;BME280;60008;50.826;6.896;2022-11-04T01:59:18;99834.38;;;9.38;100.00
72959;BME280;60008;50.826;6.896;2022-11-04T02:02:04;99832.56;;;9.39;100.00
72959;BME280;60008;50.826;6.896;2022-11-04T02:04:50;99834.91;;;9.34;100.00
72959;BME280;60008;50.826;6.896;2022-11-04T02:07:35;99829.84;;;9.24;100.00
72959;BME280;60008;50.826;6.896;2022-11-04T02:10:23;99833.75;;;9.06;100.00
72959;BME280;60008;50.826;6.896;2022-11-04T02:13:09;99832.28;;;9.03;100.00
72959;BME280;60008;50.826;6.896;2022-11-04T02:16:06;99827.81;;;9.04;100.00
72959;BME280;60008;50.826;6.896;2022-11-04T02:22:49;99823.84;;;8.99;100.00
72959;BME280;60008;50.826;6.896;2022-11-04T02:32:36;99812.69;;;8.89;100.00
72959;BME280;60008;50.826;6.896;2022-11-04T02:35:42;99811.22;;;8.87;100.00
72959;BME280;60008;50.826;6.896;2022-11-04T02:38:32;99815.63;;;8.94;100.00
72959;BME280;60008;50.826;6.896;2022-11-04T02:41:37;99805.00;;;9.03;100.00
72959;BME280;60008;50.826;6.896;2022-11-04T02:44:30;99805.88;;;8.95;100.00
72959;BME280;60008;50.826;6.896;2022-11-04T02:47:21;99810.53;;;8.93;100.00
72959;BME280;60008;50.826;6.896;2022-11-04T02:50:17;99818.97;;;8.88;100.00
72959;BME280;60008;50.826;6.896;2022-11-04T02:53:13;99821.66;;;8.80;100.00
72959;BME280;60008;50.826;6.896;2022-11-04T02:56:02;99816.03;;;8.75;100.00
72959;BME280;60008;50.826;6.896;2022-11-04T02:58:53;99821.84;;;8.71;100.00
72959;BME280;60008;50.826;6.896;2022-11-04T03:01:40;99818.72;;;8.67;100.00
72959;BME280;60008;50.826;6.896;2022-11-04T03:04:30;99821.69;;;8.64;100.00
72959;BME280;60008;50.826;6.896;2022-11-04T03:07:22;99824.38;;;8.56;100.00
72959;BME280;60008;50.826;6.896;2022-11-04T03:10:16;99823.09;;;8.44;100.00
72959;BME280;60008;50.826;6.896;2022-11-04T03:13:09;99816.69;;;8.38;100.00
72959;BME280;60008;50.826;6.896;2022-11-04T03:16:00;99813.53;;;8.35;100.00
72959;BME280;60008;50.826;6.896;2022-11-04T03:22:03;99816.06;;;8.28;100.00
72959;BME280;60008;50.826;6.896;2022-11-04T03:24:49;99818.81;;;8.19;100.00
72959;BME280;60008;50.826;6.896;2022-11-04T03:30:41;99814.88;;;8.15;100.00
72959;BME280;60008;50.826;6.896;2022-11-04T03:33:44;99827.94;;;8.00;100.00
72959;BME280;60008;50.826;6.896;2022-11-04T03:36:31;99817.06;;;7.95;100.00
72959;BME280;60008;50.826;6.896;2022-11-04T03:39:16;99827.09;;;7.92;100.00
72959;BME280;60008;50.826;6.896;2022-11-04T03:42:05;99831.41;;;7.85;100.00
72959;BME280;60008;50.826;6.896;2022-11-04T03:45:04;99821.84;;;7.75;100.00
72959;BME280;60008;50.826;6.896;2022-11-04T03:47:49;99817.41;;;7.68;100.00
72959;BME280;60008;50.826;6.896;2022-11-04T03:50:46;99827.94;;;7.60;100.00
72959;BME280;60008;50.826;6.896;2022-11-04T03:53:31;99825.28;;;7.52;100.00
72959;BME280;60008;50.826;6.896;2022-11-04T03:59:50;99818.88;;;7.95;100.00
72959;BME280;60008;50.826;6.896;2022-11-04T04:02:45;99819.69;;;8.03;100.00
72959;BME280;60008;50.826;6.896;2022-11-04T04:05:50;99814.41;;;7.95;100.00
72959;BME280;60008;50.826;6.896;2022-11-04T04:08:47;99816.75;;;7.82;100.00
72959;BME280;60008;50.826;6.896;2022-11-04T04:11:44;99811.28;;;7.84;100.00
72959;BME280;60008;50.826;6.896;2022-11-04T04:14:33;99811.78;;;7.87;100.00
72959;BME280;60008;50.826;6.896;2022-11-04T04:17:28;99819.38;;;7.90;100.00
72959;BME280;60008;50.826;6.896;2022-11-04T04:20:21;99813.09;;;7.91;100.00
72959;BME280;60008;50.826;6.896;2022-11-04T04:23:10;99807.47;;;7.94;100.00
72959;BME280;60008;50.826;6.896;2022-11-04T04:26:18;99803.19;;;8.01;100.00
72959;BME280;60008;50.826;6.896;2022-11-04T04:29:24;99806.16;;;7.98;100.00
72959;BME280;60008;50.826;6.896;2022-11-04T04:32:12;99814.09;;;7.98;100.00
72959;BME280;60008;50.826;6.896;2022-11-04T04:34:57;99817.69;;;7.97;100.00
72959;BME280;60008;50.826;6.896;2022-11-04T04:38:03;99818.53;;;7.98;100.00
72959;BME280;60008;50.826;6.896;2022-11-04T04:41:16;99818.72;;;7.96;100.00
72959;BME280;60008;50.826;6.896;2022-11-04T04:44:24;99823.31;;;7.86;100.00
72959;BME280;60008;50.826;6.896;2022-11-04T04:47:42;99821.19;;;7.90;100.00
72959;BME280;60008;50.826;6.896;2022-11-04T04:50:34;99821.84;;;7.84;100.00
72959;BME280;60008;50.826;6.896;2022-11-04T04:53:21;99820.84;;;7.85;100.00
72959;BME280;60008;50.826;6.896;2022-11-04T04:56:06;99831.41;;;7.76;100.00
72959;BME280;60008;50.826;6.896;2022-11-04T04:58:51;99822.00;;;7.74;100.00
72959;BME280;60008;50.826;6.896;2022-11-04T05:01:36;99824.31;;;7.77;100.00
72959;BME280;60008;50.826;6.896;2022-11-04T05:04:20;99827.63;;;7.79;100.00
72959;BME280;60008;50.826;6.896;2022-11-04T05:07:05;99819.19;;;7.84;100.00
72959;BME280;60008;50.826;6.896;2022-11-04T05:09:52;99814.75;;;7.84;100.00
72959;BME280;60008;50.826;6.896;2022-11-04T05:12:38;99803.69;;;7.89;100.00
72959;BME280;60008;50.826;6.896;2022-11-04T05:15:42;99807.81;;;7.83;100.00
72959;BME280;60008;50.826;6.896;2022-11-04T05:18:27;99806.00;;;7.84;100.00
72959;BME280;60008;50.826;6.896;2022-11-04T05:21:13;99806.34;;;7.80;100.00
72959;BME280;60008;50.826;6.896;2022-11-04T05:23:59;99797.44;;;7.73;100.00
72959;BME280;60008;50.826;6.896;2022-11-04T05:26:44;99801.72;;;7.66;100.00
72959;BME280;60008;50.826;6.896;2022-11-04T05:29:29;99799.44;;;7.55;100.00
72959;BME280;60008;50.826;6.896;2022-11-04T05:32:14;99801.56;;;7.44;100.00
72959;BME280;60008;50.826;6.896;2022-11-04T05:34:59;99802.03;;;7.39;100.00
72959;BME280;60008;50.826;6.896;2022-11-04T05:37:43;99795.44;;;7.27;100.00
72959;BME280;60008;50.826;6.896;2022-11-04T05:40:28;99806.81;;;7.28;100.00
72959;BME280;60008;50.826;6.896;2022-11-04T05:43:13;99814.72;;;7.19;100.00
72959;BME280;60008;50.826;6.896;2022-11-04T05:45:59;99808.56;;;6.95;100.00
72959;BME280;60008;50.826;6.896;2022-11-04T05:48:44;99829.75;;;6.93;100.00
72959;BME280;60008;50.826;6.896;2022-11-04T05:51:29;99831.88;;;6.82;100.00
72959;BME280;60008;50.826;6.896;2022-11-04T05:54:14;99837.25;;;6.72;100.00
72959;BME280;60008;50.826;6.896;2022-11-04T05:56:59;99845.63;;;6.68;100.00
72959;BME280;60008;50.826;6.896;2022-11-04T05:59:44;99844.50;;;6.70;100.00
72959;BME280;60008;50.826;6.896;2022-11-04T06:02:29;99842.78;;;6.61;100.00
72959;BME280;60008;50.826;6.896;2022-11-04T06:05:14;99847.41;;;6.59;100.00
72959;BME280;60008;50.826;6.896;2022-11-04T06:07:59;99843.59;;;6.53;100.00
72959;BME280;60008;50.826;6.896;2022-11-04T06:10:43;99847.66;;;6.48;100.00
72959;BME280;60008;50.826;6.896;2022-11-04T06:13:28;99857.88;;;6.51;100.00
72959;BME280;60008;50.826;6.896;2022-11-04T06:16:13;99863.31;;;6.49;100.00
72959;BME280;60008;50.826;6.896;2022-11-04T06:18:58;99867.41;;;6.44;100.00
72959;BME280;60008;50.826;6.896;2022-11-04T06:21:53;99874.31;;;6.45;100.00
72959;BME280;60008;50.826;6.896;2022-11-04T06:24:39;99878.25;;;6.41;100.00
72959;BME280;60008;50.826;6.896;2022-11-04T06:27:24;99882.44;;;6.34;100.00
72959;BME280;60008;50.826;6.896;2022-11-04T06:30:10;99881.38;;;6.19;100.00
72959;BME280;60008;50.826;6.896;2022-11-04T06:32:55;99876.88;;;6.11;100.00
72959;BME280;60008;50.826;6.896;2022-11-04T06:35:40;99880.47;;;6.10;100.00
72959;BME280;60008;50.826;6.896;2022-11-04T06:38:25;99891.06;;;6.18;100.00
72959;BME280;60008;50.826;6.896;2022-11-04T06:41:15;99890.09;;;6.19;100.00
72959;BME280;60008;50.826;6.896;2022-11-04T06:44:00;99892.44;;;6.22;100.00
72959;BME280;60008;50.826;6.896;2022-11-04T06:46:45;99902.31;;;6.28;100.00
72959;BME280;60008;50.826;6.896;2022-11-04T06:49:30;99913.66;;;6.29;100.00
72959;BME280;60008;50.826;6.896;2022-11-04T06:52:15;99922.34;;;6.21;100.00
72959;BME280;60008;50.826;6.896;2022-11-04T06:55:00;99920.91;;;6.27;100.00
72959;BME280;60008;50.826;6.896;2022-11-04T06:57:45;99918.47;;;6.33;100.00
72959;BME280;60008;50.826;6.896;2022-11-04T07:00:30;99918.50;;;6.41;100.00
72959;BME280;60008;50.826;6.896;2022-11-04T07:03:15;99926.03;;;6.54;100.00
72959;BME280;60008;50.826;6.896;2022-11-04T07:06:07;99917.66;;;6.58;100.00
72959;BME280;60008;50.826;6.896;2022-11-04T07:08:56;99924.47;;;6.69;100.00
72959;BME280;60008;50.826;6.896;2022-11-04T07:11:42;99934.53;;;6.74;100.00
72959;BME280;60008;50.826;6.896;2022-11-04T07:14:27;99945.31;;;6.88;100.00
72959;BME280;60008;50.826;6.896;2022-11-04T07:17:13;99951.31;;;6.98;100.00
72959;BME280;60008;50.826;6.896;2022-11-04T07:19:58;99949.69;;;7.05;100.00
72959;BME280;60008;50.826;6.896;2022-11-04T07:22:43;99950.50;;;7.06;100.00
72959;BME280;60008;50.826;6.896;2022-11-04T07:25:27;99959.78;;;7.18;100.00
72959;BME280;60008;50.826;6.896;2022-11-04T07:28:12;99966.75;;;7.27;100.00
72959;BME280;60008;50.826;6.896;2022-11-04T07:30:59;99973.81;;;7.27;100.00
72959;BME280;60008;50.826;6.896;2022-11-04T07:33:44;99979.75;;;7.29;100.00
72959;BME280;60008;50.826;6.896;2022-11-04T07:36:34;99992.78;;;7.30;100.00
72959;BME280;60008;50.826;6.896;2022-11-04T07:39:19;99994.84;;;7.44;100.00
72959;BME280;60008;50.826;6.896;2022-11-04T07:42:06;100004.72;;;7.50;100.00
72959;BME280;60008;50.826;6.896;2022-11-04T07:44:51;99999.44;;;7.50;100.00
72959;BME280;60008;50.826;6.896;2022-11-04T07:47:36;99999.81;;;7.55;100.00
72959;BME280;60008;50.826;6.896;2022-11-04T07:50:21;99998.19;;;7.62;100.00
72959;BME280;60008;50.826;6.896;2022-11-04T07:53:06;99991.75;;;7.65;100.00
72959;BME280;60008;50.826;6.896;2022-11-04T07:55:52;99982.88;;;7.66;100.00
72959;BME280;60008;50.826;6.896;2022-11-04T07:58:38;99985.03;;;7.70;100.00
72959;BME280;60008;50.826;6.896;2022-11-04T08:01:23;99977.63;;;7.74;100.00
72959;BME280;60008;50.826;6.896;2022-11-04T08:04:08;99985.22;;;7.77;100.00
72959;BME280;60008;50.826;6.896;2022-11-04T08:06:55;99985.06;;;7.87;100.00
72959;BME280;60008;50.826;6.896;2022-11-04T08:09:39;99998.13;;;7.96;100.00
72959;BME280;60008;50.826;6.896;2022-11-04T08:12:25;99986.75;;;8.04;100.00
72959;BME280;60008;50.826;6.896;2022-11-04T08:15:11;99984.78;;;8.14;100.00
72959;BME280;60008;50.826;6.896;2022-11-04T08:17:56;99987.22;;;8.15;100.00
72959;BME280;60008;50.826;6.896;2022-11-04T08:20:49;99995.97;;;8.16;100.00
72959;BME280;60008;50.826;6.896;2022-11-04T08:23:34;99988.22;;;8.06;100.00
72959;BME280;60008;50.826;6.896;2022-11-04T08:26:19;99995.84;;;8.25;100.00
72959;BME280;60008;50.826;6.896;2022-11-04T08:29:07;99999.69;;;8.47;100.00
72959;BME280;60008;50.826;6.896;2022-11-04T08:31:52;100006.09;;;8.77;100.00
72959;BME280;60008;50.826;6.896;2022-11-04T08:34:37;99999.44;;;8.97;100.00
72959;BME280;60008;50.826;6.896;2022-11-04T08:37:22;99993.31;;;9.13;100.00
72959;BME280;60008;50.826;6.896;2022-11-04T08:40:07;99992.41;;;9.36;100.00
72959;BME280;60008;50.826;6.896;2022-11-04T08:42:53;99995.19;;;9.43;100.00
72959;BME280;60008;50.826;6.896;2022-11-04T08:45:40;100000.69;;;9.25;100.00
72959;BME280;60008;50.826;6.896;2022-11-04T08:48:26;99999.34;;;8.66;100.00
72959;BME280;60008;50.826;6.896;2022-11-04T08:51:15;100008.22;;;8.81;100.00
72959;BME280;60008;50.826;6.896;2022-11-04T08:54:01;100005.38;;;9.07;100.00
72959;BME280;60008;50.826;6.896;2022-11-04T08:56:46;100007.75;;;9.41;100.00
72959;BME280;60008;50.826;6.896;2022-11-04T08:59:31;100000.94;;;9.46;100.00
72959;BME280;60008;50.826;6.896;2022-11-04T09:02:16;99997.31;;;9.47;100.00
72959;BME280;60008;50.826;6.896;2022-11-04T09:05:01;100002.56;;;9.55;100.00
72959;BME280;60008;50.826;6.896;2022-11-04T09:07:47;100008.81;;;9.63;100.00
72959;BME280;60008;50.826;6.896;2022-11-04T09:10:31;100001.19;;;9.98;100.00
72959;BME280;60008;50.826;6.896;2022-11-04T09:13:16;100006.72;;;10.11;100.00
72959;BME280;60008;50.826;6.896;2022-11-04T09:16:02;99991.19;;;10.08;100.00
72959;BME280;60008;50.826;6.896;2022-11-04T09:18:47;99985.25;;;10.52;100.00
72959;BME280;60008;50.826;6.896;2022-11-04T09:21:32;99982.94;;;10.71;100.00
72959;BME280;60008;50.826;6.896;2022-11-04T09:24:18;99976.44;;;10.59;100.00
72959;BME280;60008;50.826;6.896;2022-11-04T09:27:04;99984.19;;;10.61;100.00
72959;BME280;60008;50.826;6.896;2022-11-04T09:29:49;99989.47;;;10.84;100.00
72959;BME280;60008;50.826;6.896;2022-11-04T09:32:34;99986.44;;;11.45;100.00
72959;BME280;60008;50.826;6.896;2022-11-04T09:35:19;99980.09;;;11.61;100.00
72959;BME280;60008;50.826;6.896;2022-11-04T09:38:03;99991.19;;;11.50;100.00
72959;BME280;60008;50.826;6.896;2022-11-04T09:40:48;99990.03;;;11.23;100.00
72959;BME280;60008;50.826;6.896;2022-11-04T09:46:30;99983.97;;;11.58;100.00
72959;BME280;60008;50.826;6.896;2022-11-04T09:49:17;99976.09;;;11.79;100.00
72959;BME280;60008;50.826;6.896;2022-11-04T09:52:07;99980.59;;;12.00;100.00
72959;BME280;60008;50.826;6.896;2022-11-04T09:55:12;99983.13;;;11.58;100.00
72959;BME280;60008;50.826;6.896;2022-11-04T09:58:00;99985.28;;;11.98;100.00
72959;BME280;60008;50.826;6.896;2022-11-04T10:00:54;99998.88;;;11.01;100.00
72959;BME280;60008;50.826;6.896;2022-11-04T10:06:36;100004.75;;;10.96;100.00
72959;BME280;60008;50.826;6.896;2022-11-04T10:09:40;100005.66;;;10.51;100.00
72959;BME280;60008;50.826;6.896;2022-11-04T10:12:58;100003.03;;;10.66;100.00
72959;BME280;60008;50.826;6.896;2022-11-04T10:16:28;100010.63;;;10.69;100.00
72959;BME280;60008;50.826;6.896;2022-11-04T10:19:19;100004.91;;;10.80;100.00
72959;BME280;60008;50.826;6.896;2022-11-04T10:22:20;100010.47;;;10.85;100.00
72959;BME280;60008;50.826;6.896;2022-11-04T10:25:15;100016.34;;;10.95;100.00
72959;BME280;60008;50.826;6.896;2022-11-04T10:28:04;100021.63;;;10.81;100.00
72959;BME280;60008;50.826;6.896;2022-11-04T10:30:51;100025.22;;;11.02;100.00
72959;BME280;60008;50.826;6.896;2022-11-04T10:33:39;100031.53;;;11.01;100.00
72959;BME280;60008;50.826;6.896;2022-11-04T10:36:27;100025.41;;;11.01;100.00
72959;BME280;60008;50.826;6.896;2022-11-04T10:39:41;100040.66;;;10.99;100.00
72959;BME280;60008;50.826;6.896;2022-11-04T10:42:27;100032.28;;;11.10;100.00
72959;BME280;60008;50.826;6.896;2022-11-04T10:45:12;100033.66;;;11.20;100.00
72959;BME280;60008;50.826;6.896;2022-11-04T10:48:02;100032.72;;;11.28;100.00
72959;BME280;60008;50.826;6.896;2022-11-04T10:50:53;100032.03;;;11.78;100.00
72959;BME280;60008;50.826;6.896;2022-11-04T10:53:39;100031.72;;;12.66;100.00
72959;BME280;60008;50.826;6.896;2022-11-04T10:56:37;100029.66;;;13.85;93.89
72959;BME280;60008;50.826;6.896;2022-11-04T10:59:30;100025.66;;;13.21;95.90
72959;BME280;60008;50.826;6.896;2022-11-04T11:02:16;100034.22;;;13.50;91.90
72959;BME280;60008;50.826;6.896;2022-11-04T11:08:02;100042.63;;;12.49;98.92
72959;BME280;60008;50.826;6.896;2022-11-04T11:10:51;100039.97;;;12.28;100.00
72959;BME280;60008;50.826;6.896;2022-11-04T11:13:38;100034.44;;;12.51;98.42
72959;BME280;60008;50.826;6.896;2022-11-04T11:16:26;100028.50;;;12.49;95.55
72959;BME280;60008;50.826;6.896;2022-11-04T11:19:15;100045.84;;;12.45;96.85
72959;BME280;60008;50.826;6.896;2022-11-04T11:22:01;100041.63;;;13.27;91.93
72959;BME280;60008;50.826;6.896;2022-11-04T11:24:46;100047.38;;;13.58;88.74
72959;BME280;60008;50.826;6.896;2022-11-04T11:27:31;100038.81;;;13.35;87.95
72959;BME280;60008;50.826;6.896;2022-11-04T11:30:28;100038.88;;;13.83;87.06
72959;BME280;60008;50.826;6.896;2022-11-04T11:33:30;100032.88;;;14.28;84.72
72959;BME280;60008;50.826;6.896;2022-11-04T11:36:23;100029.47;;;13.87;84.49
72959;BME280;60008;50.826;6.896;2022-11-04T11:42:07;100031.91;;;12.64;85.61
72959;BME280;60008;50.826;6.896;2022-11-04T11:44:56;100028.63;;;12.62;87.68
72959;BME280;60008;50.826;6.896;2022-11-04T11:47:43;100029.00;;;12.59;88.42
72959;BME280;60008;50.826;6.896;2022-11-04T11:50:29;100022.44;;;12.55;85.94
72959;BME280;60008;50.826;6.896;2022-11-04T11:53:19;100030.69;;;12.88;87.08
72959;BME280;60008;50.826;6.896;2022-11-04T11:56:28;100039.53;;;12.95;84.18
72959;BME280;60008;50.826;6.896;2022-11-04T11:59:52;100033.34;;;13.09;84.45
72959;BME280;60008;50.826;6.896;2022-11-04T12:06:15;100046.34;;;13.59;83.63
72959;BME280;60008;50.826;6.896;2022-11-04T12:09:13;100045.91;;;13.22;83.43
72959;BME280;60008;50.826;6.896;2022-11-04T12:12:28;100051.38;;;12.92;86.82
72959;BME280;60008;50.826;6.896;2022-11-04T12:15:33;100050.16;;;12.67;87.21
72959;BME280;60008;50.826;6.896;2022-11-04T12:21:31;100050.38;;;12.72;88.77
72959;BME280;60008;50.826;6.896;2022-11-04T12:24:29;100044.41;;;12.64;87.37
72959;BME280;60008;50.826;6.896;2022-11-04T12:27:41;100060.84;;;12.52;88.53
72959;BME280;60008;50.826;6.896;2022-11-04T12:30:39;100067.25;;;12.58;86.54
72959;BME280;60008;50.826;6.896;2022-11-04T12:33:54;100066.16;;;12.74;87.31
72959;BME280;60008;50.826;6.896;2022-11-04T12:37:19;100061.94;;;12.58;86.82
72959;BME280;60008;50.826;6.896;2022-11-04T12:40:14;100062.88;;;12.50;88.01
72959;BME280;60008;50.826;6.896;2022-11-04T12:43:23;100067.75;;;12.47;86.02
72959;BME280;60008;50.826;6.896;2022-11-04T12:46:36;100067.56;;;12.48;85.78
72959;BME280;60008;50.826;6.896;2022-11-04T12:49:50;100074.16;;;12.52;84.92
72959;BME280;60008;50.826;6.896;2022-11-04T12:53:05;100080.59;;;12.65;85.15
72959;BME280;60008;50.826;6.896;2022-11-04T12:56:10;100073.19;;;12.60;84.89
72959;BME280;60008;50.826;6.896;2022-11-04T12:59:19;100074.06;;;12.67;85.54
72959;BME280;60008;50.826;6.896;2022-11-04T13:02:15;100081.16;;;12.60;84.26
72959;BME280;60008;50.826;6.896;2022-11-04T13:08:37;100084.97;;;12.51;88.82
72959;BME280;60008;50.826;6.896;2022-11-04T13:11:33;100081.34;;;12.37;88.71
72959;BME280;60008;50.826;6.896;2022-11-04T13:14:28;100086.66;;;12.37;91.83
72959;BME280;60008;50.826;6.896;2022-11-04T13:17:19;100092.56;;;12.18;91.17
72959;BME280;60008;50.826;6.896;2022-11-04T13:23:01;100097.00;;;12.11;92.68
72959;BME280;60008;50.826;6.896;2022-11-04T13:25:48;100105.31;;;12.08;94.61
72959;BME280;60008;50.826;6.896;2022-11-04T13:28:35;100106.06;;;12.02;95.05
72959;BME280;60008;50.826;6.896;2022-11-04T13:31:36;100114.97;;;11.94;93.66
72959;BME280;60008;50.826;6.896;2022-11-04T13:37:57;100119.16;;;11.89;95.83
72959;BME280;60008;50.826;6.896;2022-11-04T13:43:50;100121.47;;;11.92;92.15
72959;BME280;60008;50.826;6.896;2022-11-04T13:46:37;100128.50;;;12.00;92.76
72959;BME280;60008;50.826;6.896;2022-11-04T13:49:33;100126.75;;;12.07;94.93
72959;BME280;60008;50.826;6.896;2022-11-04T13:52:30;100129.75;;;12.18;94.21
72959;BME280;60008;50.826;6.896;2022-11-04T13:55:18;100134.78;;;12.28;90.69
72959;BME280;60008;50.826;6.896;2022-11-04T13:58:06;100135.78;;;12.41;91.50
72959;BME280;60008;50.826;6.896;2022-11-04T14:04:24;100149.16;;;12.69;93.30
72959;BME280;60008;50.826;6.896;2022-11-04T14:07:12;100143.53;;;12.58;89.23
72959;BME280;60008;50.826;6.896;2022-11-04T14:09:59;100151.06;;;12.39;90.61
72959;BME280;60008;50.826;6.896;2022-11-04T14:12:44;100147.88;;;12.29;92.43
72959;BME280;60008;50.826;6.896;2022-11-04T14:16:05;100156.16;;;12.20;94.70
72959;BME280;60008;50.826;6.896;2022-11-04T14:18:52;100161.19;;;12.15;93.21
72959;BME280;60008;50.826;6.896;2022-11-04T14:22:03;100162.47;;;12.19;94.33
72959;BME280;60008;50.826;6.896;2022-11-04T14:25:17;100168.59;;;12.19;92.69
72959;BME280;60008;50.826;6.896;2022-11-04T14:30:56;100178.03;;;12.07;95.07
72959;BME280;60008;50.826;6.896;2022-11-04T14:33:52;100178.97;;;12.00;95.14
72959;BME280;60008;50.826;6.896;2022-11-04T14:36:39;100185.94;;;12.01;93.71
72959;BME280;60008;50.826;6.896;2022-11-04T14:39:36;100188.31;;;11.96;92.13
72959;BME280;60008;50.826;6.896;2022-11-04T14:42:49;100194.53;;;11.88;92.18
72959;BME280;60008;50.826;6.896;2022-11-04T14:45:38;100197.38;;;11.86;93.46
72959;BME280;60008;50.826;6.896;2022-11-04T14:48:23;100200.75;;;11.80;95.62
72959;BME280;60008;50.826;6.896;2022-11-04T14:51:19;100209.00;;;11.71;98.86
72959;BME280;60008;50.826;6.896;2022-11-04T14:54:17;100211.84;;;11.61;100.00
72959;BME280;60008;50.826;6.896;2022-11-04T14:57:13;100231.41;;;11.46;100.00
72959;BME280;60008;50.826;6.896;2022-11-04T14:59:59;100237.91;;;11.43;100.00
72959;BME280;60008;50.826;6.896;2022-11-04T15:02:43;100240.97;;;11.32;100.00
72959;BME280;60008;50.826;6.896;2022-11-04T15:05:28;100249.53;;;11.19;100.00
72959;BME280;60008;50.826;6.896;2022-11-04T15:11:38;100265.94;;;11.15;100.00
72959;BME280;60008;50.826;6.896;2022-11-04T15:14:41;100263.69;;;11.04;100.00
72959;BME280;60008;50.826;6.896;2022-11-04T15:17:29;100258.44;;;10.96;100.00
72959;BME280;60008;50.826;6.896;2022-11-04T15:20:27;100273.06;;;10.92;100.00
72959;BME280;60008;50.826;6.896;2022-11-04T15:23:16;100273.94;;;10.84;100.00
72959;BME280;60008;50.826;6.896;2022-11-04T15:26:03;100281.22;;;10.82;100.00
72959;BME280;60008;50.826;6.896;2022-11-04T15:28:49;100291.34;;;10.79;100.00
72959;BME280;60008;50.826;6.896;2022-11-04T15:31:35;100294.81;;;10.79;100.00
72959;BME280;60008;50.826;6.896;2022-11-04T15:34:22;100298.84;;;10.67;100.00
72959;BME280;60008;50.826;6.896;2022-11-04T15:37:10;100312.72;;;10.77;100.00
72959;BME280;60008;50.826;6.896;2022-11-04T15:39:56;100308.28;;;10.69;100.00
72959;BME280;60008;50.826;6.896;2022-11-04T15:42:42;100318.06;;;10.69;100.00
72959;BME280;60008;50.826;6.896;2022-11-04T15:45:49;100318.25;;;10.67;100.00
72959;BME280;60008;50.826;6.896;2022-11-04T15:48:37;100323.41;;;10.53;100.00
72959;BME280;60008;50.826;6.896;2022-11-04T15:51:24;100326.09;;;10.45;100.00
72959;BME280;60008;50.826;6.896;2022-11-04T15:54:20;100332.56;;;10.42;100.00
72959;BME280;60008;50.826;6.896;2022-11-04T15:57:13;100340.16;;;10.45;100.00